sensor_id;sensor_type;location;lat;lon;timestamp;pressure;altitude;pressure_sealevel;temperature;humidity
43683;BME280;29285;52.128;21.060;2023-04-06T00:02:36;100929.46;;;3.91;67.50
43683;BME280;29285;52.128;21.060;2023-04-06T00:07:38;100934.27;;;3.91;67.77
43683;BME280;29285;52.128;21.060;2023-04-06T00:12:41;100925.63;;;3.89;67.64
43683;BME280;29285;52.128;21.060;2023-04-06T00:17:43;100929.41;;;3.89;67.67
43683;BME280;29285;52.128;21.060;2023-04-06T00:22:54;100919.84;;;3.91;67.62
43683;BME280;29285;52.128;21.060;2023-04-06T00:27:59;100917.61;;;3.91;67.61
43683;BME280;29285;52.128;21.060;2023-04-06T00:33:00;100913.32;;;3.91;67.53
43683;BME280;29285;52.128;21.060;2023-04-06T00:38:05;100908.90;;;3.93;67.61
43683;BME280;29285;52.128;21.060;2023-04-06T00:43:16;100905.63;;;3.93;67.68
43683;BME280;29285;52.128;21.060;2023-04-06T00:48:18;100904.77;;;3.93;67.73
43683;BME280;29285;52.128;21.060;2023-04-06T00:53:19;100896.02;;;3.93;67.76
43683;BME280;29285;52.128;21.060;2023-04-06T00:58:21;100896.37;;;3.93;67.87
43683;BME280;29285;52.128;21.060;2023-04-06T01:03:23;100896.35;;;3.92;67.47
43683;BME280;29285;52.128;21.060;2023-04-06T01:08:25;100894.82;;;3.93;67.50
43683;BME280;29285;52.128;21.060;2023-04-06T01:13:27;100892.96;;;3.94;67.68
43683;BME280;29285;52.128;21.060;2023-04-06T01:18:29;100890.96;;;3.98;67.76
43683;BME280;29285;52.128;21.060;2023-04-06T01:23:31;100886.86;;;3.99;67.53
43683;BME280;29285;52.128;21.060;2023-04-06T01:28:32;100884.44;;;3.98;67.80
43683;BME280;29285;52.128;21.060;2023-04-06T01:33:34;100879.42;;;3.96;67.81
43683;BME280;29285;52.128;21.060;2023-04-06T01:38:36;100871.61;;;3.92;67.80
43683;BME280;29285;52.128;21.060;2023-04-06T01:43:38;100866.70;;;3.86;67.50
43683;BME280;29285;52.128;21.060;2023-04-06T01:48:42;100864.29;;;3.77;67.18
43683;BME280;29285;52.128;21.060;2023-04-06T01:53:44;100863.81;;;3.70;67.10
43683;BME280;29285;52.128;21.060;2023-04-06T01:58:45;100857.58;;;3.68;67.07
43683;BME280;29285;52.128;21.060;2023-04-06T02:03:47;100857.55;;;3.67;67.29
43683;BME280;29285;52.128;21.060;2023-04-06T02:08:49;100855.85;;;3.68;67.48
43683;BME280;29285;52.128;21.060;2023-04-06T02:13:58;100853.73;;;3.64;67.35
43683;BME280;29285;52.128;21.060;2023-04-06T02:19:02;100847.98;;;3.60;67.17
43683;BME280;29285;52.128;21.060;2023-04-06T02:24:03;100842.13;;;3.60;67.12
43683;BME280;29285;52.128;21.060;2023-04-06T02:29:05;100838.18;;;3.60;67.18
43683;BME280;29285;52.128;21.060;2023-04-06T02:34:08;100834.61;;;3.61;67.17
43683;BME280;29285;52.128;21.060;2023-04-06T02:39:12;100833.74;;;3.61;67.33
43683;BME280;29285;52.128;21.060;2023-04-06T02:44:14;100831.42;;;3.56;67.11
43683;BME280;29285;52.128;21.060;2023-04-06T02:49:16;100827.50;;;3.57;67.15
43683;BME280;29285;52.128;21.060;2023-04-06T02:54:18;100828.26;;;3.52;67.04
43683;BME280;29285;52.128;21.060;2023-04-06T02:59:20;100829.06;;;3.50;67.08
43683;BME280;29285;52.128;21.060;2023-04-06T03:04:22;100831.41;;;3.47;67.13
43683;BME280;29285;52.128;21.060;2023-04-06T03:09:26;100832.84;;;3.42;67.15
43683;BME280;29285;52.128;21.060;2023-04-06T03:14:29;100833.46;;;3.38;67.30
43683;BME280;29285;52.128;21.060;2023-04-06T03:19:31;100835.74;;;3.33;67.18
43683;BME280;29285;52.128;21.060;2023-04-06T03:29:48;100839.12;;;3.30;67.36
43683;BME280;29285;52.128;21.060;2023-04-06T03:34:50;100840.35;;;3.31;67.46
43683;BME280;29285;52.128;21.060;2023-04-06T03:39:52;100838.91;;;3.29;67.43
43683;BME280;29285;52.128;21.060;2023-04-06T03:44:53;100838.24;;;3.29;67.78
43683;BME280;29285;52.128;21.060;2023-04-06T03:49:55;100838.88;;;3.27;67.73
43683;BME280;29285;52.128;21.060;2023-04-06T03:54:57;100838.20;;;3.20;67.53
43683;BME280;29285;52.128;21.060;2023-04-06T04:00:02;100833.14;;;3.16;67.77
43683;BME280;29285;52.128;21.060;2023-04-06T04:05:04;100837.81;;;3.10;67.88
43683;BME280;29285;52.128;21.060;2023-04-06T04:10:09;100837.79;;;3.09;67.89
43683;BME280;29285;52.128;21.060;2023-04-06T04:15:10;100835.30;;;3.05;68.21
43683;BME280;29285;52.128;21.060;2023-04-06T04:20:12;100831.04;;;3.07;68.17
43683;BME280;29285;52.128;21.060;2023-04-06T04:25:14;100834.80;;;3.06;68.66
43683;BME280;29285;52.128;21.060;2023-04-06T04:30:16;100826.00;;;3.03;68.51
43683;BME280;29285;52.128;21.060;2023-04-06T04:35:18;100831.16;;;3.03;68.88
43683;BME280;29285;52.128;21.060;2023-04-06T04:40:19;100821.14;;;3.00;68.91
43683;BME280;29285;52.128;21.060;2023-04-06T04:45:21;100819.17;;;2.97;68.87
43683;BME280;29285;52.128;21.060;2023-04-06T04:50:23;100813.86;;;2.89;68.87
43683;BME280;29285;52.128;21.060;2023-04-06T04:55:25;100812.49;;;2.90;69.19
43683;BME280;29285;52.128;21.060;2023-04-06T05:00:27;100809.17;;;2.94;69.25
43683;BME280;29285;52.128;21.060;2023-04-06T05:05:29;100808.87;;;2.96;69.53
43683;BME280;29285;52.128;21.060;2023-04-06T05:10:31;100813.36;;;2.97;69.53
43683;BME280;29285;52.128;21.060;2023-04-06T05:15:33;100814.95;;;3.00;69.93
43683;BME280;29285;52.128;21.060;2023-04-06T05:20:39;100815.58;;;3.12;70.17
43683;BME280;29285;52.128;21.060;2023-04-06T05:25:41;100818.05;;;3.24;70.62
43683;BME280;29285;52.128;21.060;2023-04-06T05:30:45;100812.95;;;3.34;70.83
43683;BME280;29285;52.128;21.060;2023-04-06T05:35:47;100810.90;;;3.42;70.63
43683;BME280;29285;52.128;21.060;2023-04-06T05:40:49;100808.56;;;3.54;70.92
43683;BME280;29285;52.128;21.060;2023-04-06T05:45:51;100804.73;;;3.60;71.27
43683;BME280;29285;52.128;21.060;2023-04-06T05:50:52;100799.61;;;3.70;71.37
43683;BME280;29285;52.128;21.060;2023-04-06T05:55:56;100798.27;;;3.90;72.12
43683;BME280;29285;52.128;21.060;2023-04-06T06:00:58;100798.13;;;4.10;72.71
43683;BME280;29285;52.128;21.060;2023-04-06T06:06:01;100795.52;;;4.29;73.32
43683;BME280;29285;52.128;21.060;2023-04-06T06:11:03;100793.64;;;4.50;74.00
43683;BME280;29285;52.128;21.060;2023-04-06T06:16:04;100786.66;;;4.65;74.34
43683;BME280;29285;52.128;21.060;2023-04-06T06:21:09;100788.70;;;4.74;74.70
43683;BME280;29285;52.128;21.060;2023-04-06T06:26:13;100784.67;;;4.71;74.72
43683;BME280;29285;52.128;21.060;2023-04-06T06:31:15;100785.16;;;4.68;74.60
43683;BME280;29285;52.128;21.060;2023-04-06T06:36:17;100778.64;;;4.69;74.60
43683;BME280;29285;52.128;21.060;2023-04-06T06:41:19;100777.15;;;4.73;74.87
43683;BME280;29285;52.128;21.060;2023-04-06T06:46:24;100772.99;;;4.71;74.97
43683;BME280;29285;52.128;21.060;2023-04-06T06:51:26;100774.23;;;4.72;75.20
43683;BME280;29285;52.128;21.060;2023-04-06T06:56:27;100773.67;;;4.82;75.49
43683;BME280;29285;52.128;21.060;2023-04-06T07:01:30;100769.55;;;4.94;76.10
43683;BME280;29285;52.128;21.060;2023-04-06T07:06:32;100764.67;;;5.15;76.56
43683;BME280;29285;52.128;21.060;2023-04-06T07:11:34;100775.21;;;5.18;76.96
43683;BME280;29285;52.128;21.060;2023-04-06T07:16:36;100771.81;;;5.21;76.90
43683;BME280;29285;52.128;21.060;2023-04-06T07:21:37;100763.39;;;5.36;77.30
43683;BME280;29285;52.128;21.060;2023-04-06T07:26:39;100758.13;;;5.41;77.55
43683;BME280;29285;52.128;21.060;2023-04-06T07:31:43;100756.39;;;5.41;77.33
43683;BME280;29285;52.128;21.060;2023-04-06T07:36:46;100763.40;;;5.67;78.05
43683;BME280;29285;52.128;21.060;2023-04-06T07:41:48;100763.33;;;5.46;77.80
43683;BME280;29285;52.128;21.060;2023-04-06T07:46:52;100762.17;;;5.08;76.23
43683;BME280;29285;52.128;21.060;2023-04-06T07:51:54;100762.79;;;4.89;75.83
43683;BME280;29285;52.128;21.060;2023-04-06T07:56:56;100760.46;;;4.83;75.66
43683;BME280;29285;52.128;21.060;2023-04-06T08:02:00;100754.88;;;4.90;75.73
43683;BME280;29285;52.128;21.060;2023-04-06T08:07:02;100751.80;;;5.04;76.09
43683;BME280;29285;52.128;21.060;2023-04-06T08:12:03;100747.69;;;5.19;76.59
43683;BME280;29285;52.128;21.060;2023-04-06T08:17:05;100745.38;;;5.13;76.35
43683;BME280;29285;52.128;21.060;2023-04-06T08:22:07;100749.86;;;4.87;75.78
43683;BME280;29285;52.128;21.060;2023-04-06T08:27:08;100748.09;;;4.72;75.75
43683;BME280;29285;52.128;21.060;2023-04-06T08:32:10;100739.23;;;4.78;76.02
43683;BME280;29285;52.128;21.060;2023-04-06T08:37:12;100731.70;;;5.68;77.79
43683;BME280;29285;52.128;21.060;2023-04-06T08:42:20;100736.95;;;7.03;82.28
43683;BME280;29285;52.128;21.060;2023-04-06T08:47:22;100737.60;;;7.38;83.79
43683;BME280;29285;52.128;21.060;2023-04-06T08:52:24;100730.04;;;7.47;83.76
43683;BME280;29285;52.128;21.060;2023-04-06T08:57:26;100731.10;;;6.79;81.58
43683;BME280;29285;52.128;21.060;2023-04-06T09:02:28;100723.80;;;6.20;79.45
43683;BME280;29285;52.128;21.060;2023-04-06T09:07:30;100717.56;;;5.80;78.41
43683;BME280;29285;52.128;21.060;2023-04-06T09:12:32;100718.77;;;5.47;77.52
43683;BME280;29285;52.128;21.060;2023-04-06T09:17:34;100712.02;;;4.99;76.88
43683;BME280;29285;52.128;21.060;2023-04-06T09:22:38;100712.98;;;4.68;76.81
43683;BME280;29285;52.128;21.060;2023-04-06T09:27:40;100702.12;;;4.43;76.98
43683;BME280;29285;52.128;21.060;2023-04-06T09:32:50;100701.61;;;4.32;77.07
43683;BME280;29285;52.128;21.060;2023-04-06T09:37:52;100700.01;;;4.17;77.28
43683;BME280;29285;52.128;21.060;2023-04-06T09:42:54;100693.48;;;4.07;77.53
43683;BME280;29285;52.128;21.060;2023-04-06T09:48:01;100684.35;;;3.94;77.71
43683;BME280;29285;52.128;21.060;2023-04-06T09:53:04;100686.79;;;3.86;78.27
43683;BME280;29285;52.128;21.060;2023-04-06T09:58:07;100692.87;;;3.80;78.59
43683;BME280;29285;52.128;21.060;2023-04-06T10:08:15;100676.22;;;3.61;79.66
43683;BME280;29285;52.128;21.060;2023-04-06T10:13:17;100674.39;;;3.55;80.16
43683;BME280;29285;52.128;21.060;2023-04-06T10:18:20;100666.27;;;3.51;80.60
43683;BME280;29285;52.128;21.060;2023-04-06T10:23:24;100665.91;;;3.50;81.25
43683;BME280;29285;52.128;21.060;2023-04-06T10:28:34;100654.41;;;3.50;82.07
43683;BME280;29285;52.128;21.060;2023-04-06T10:33:37;100649.70;;;3.46;82.43
43683;BME280;29285;52.128;21.060;2023-04-06T10:38:39;100654.17;;;3.46;82.99
43683;BME280;29285;52.128;21.060;2023-04-06T10:43:41;100645.61;;;3.48;83.39
43683;BME280;29285;52.128;21.060;2023-04-06T10:48:43;100637.85;;;3.45;83.94
43683;BME280;29285;52.128;21.060;2023-04-06T10:53:46;100634.85;;;3.50;84.49
43683;BME280;29285;52.128;21.060;2023-04-06T10:58:51;100629.71;;;4.02;86.04
43683;BME280;29285;52.128;21.060;2023-04-06T11:03:54;100620.73;;;4.87;88.94
43683;BME280;29285;52.128;21.060;2023-04-06T11:08:57;100612.14;;;5.37;90.70
43683;BME280;29285;52.128;21.060;2023-04-06T11:13:59;100611.65;;;5.78;92.16
43683;BME280;29285;52.128;21.060;2023-04-06T11:19:03;100604.06;;;6.22;93.23
43683;BME280;29285;52.128;21.060;2023-04-06T11:29:18;100600.30;;;6.24;93.61
43683;BME280;29285;52.128;21.060;2023-04-06T11:34:21;100604.51;;;6.37;93.60
43683;BME280;29285;52.128;21.060;2023-04-06T11:39:23;100600.93;;;6.86;95.07
43683;BME280;29285;52.128;21.060;2023-04-06T11:49:31;100587.58;;;6.67;95.37
43683;BME280;29285;52.128;21.060;2023-04-06T11:54:34;100580.12;;;7.01;96.72
43683;BME280;29285;52.128;21.060;2023-04-06T11:59:37;100569.40;;;6.48;95.78
43683;BME280;29285;52.128;21.060;2023-04-06T12:04:39;100566.86;;;5.74;93.75
43683;BME280;29285;52.128;21.060;2023-04-06T12:09:42;100559.38;;;5.24;92.53
43683;BME280;29285;52.128;21.060;2023-04-06T12:14:44;100552.38;;;4.78;91.81
43683;BME280;29285;52.128;21.060;2023-04-06T12:19:46;100543.33;;;4.54;91.80
43683;BME280;29285;52.128;21.060;2023-04-06T12:24:48;100545.55;;;4.39;91.77
43683;BME280;29285;52.128;21.060;2023-04-06T12:29:50;100560.42;;;4.33;92.55
43683;BME280;29285;52.128;21.060;2023-04-06T12:34:52;100550.02;;;4.25;92.80
43683;BME280;29285;52.128;21.060;2023-04-06T12:39:53;100554.41;;;4.20;93.41
43683;BME280;29285;52.128;21.060;2023-04-06T12:44:55;100553.41;;;4.22;93.72
43683;BME280;29285;52.128;21.060;2023-04-06T12:49:57;100548.48;;;4.13;94.23
43683;BME280;29285;52.128;21.060;2023-04-06T12:54:58;100544.70;;;4.01;94.25
43683;BME280;29285;52.128;21.060;2023-04-06T13:00:02;100545.36;;;3.99;94.72
43683;BME280;29285;52.128;21.060;2023-04-06T13:05:04;100540.77;;;4.03;95.06
43683;BME280;29285;52.128;21.060;2023-04-06T13:10:06;100523.11;;;4.04;95.60
43683;BME280;29285;52.128;21.060;2023-04-06T13:15:08;100515.54;;;4.02;95.91
43683;BME280;29285;52.128;21.060;2023-04-06T13:20:10;100505.02;;;3.99;96.05
43683;BME280;29285;52.128;21.060;2023-04-06T13:25:11;100507.56;;;3.97;96.37
43683;BME280;29285;52.128;21.060;2023-04-06T13:30:13;100506.14;;;3.94;96.80
43683;BME280;29285;52.128;21.060;2023-04-06T13:35:15;100504.66;;;3.86;96.95
43683;BME280;29285;52.128;21.060;2023-04-06T13:40:18;100506.00;;;3.83;96.94
43683;BME280;29285;52.128;21.060;2023-04-06T13:45:20;100496.71;;;3.94;97.58
43683;BME280;29285;52.128;21.060;2023-04-06T13:50:21;100493.21;;;4.03;98.42
43683;BME280;29285;52.128;21.060;2023-04-06T13:55:23;100491.80;;;4.12;99.06
43683;BME280;29285;52.128;21.060;2023-04-06T14:00:28;100484.02;;;4.22;99.87
43683;BME280;29285;52.128;21.060;2023-04-06T14:05:32;100470.81;;;4.24;99.90
43683;BME280;29285;52.128;21.060;2023-04-06T14:10:38;100467.96;;;4.30;100.00
43683;BME280;29285;52.128;21.060;2023-04-06T14:15:40;100464.23;;;4.33;100.00
43683;BME280;29285;52.128;21.060;2023-04-06T14:20:41;100468.11;;;4.42;100.00
43683;BME280;29285;52.128;21.060;2023-04-06T14:25:45;100467.69;;;4.51;100.00
43683;BME280;29285;52.128;21.060;2023-04-06T14:30:47;100468.53;;;4.50;100.00
43683;BME280;29285;52.128;21.060;2023-04-06T14:35:49;100476.42;;;4.50;100.00
43683;BME280;29285;52.128;21.060;2023-04-06T14:40:50;100479.86;;;4.49;100.00
43683;BME280;29285;52.128;21.060;2023-04-06T14:45:52;100471.41;;;4.47;100.00
43683;BME280;29285;52.128;21.060;2023-04-06T14:50:57;100462.65;;;4.46;100.00
43683;BME280;29285;52.128;21.060;2023-04-06T14:55:59;100461.48;;;4.48;100.00
43683;BME280;29285;52.128;21.060;2023-04-06T15:01:01;100448.11;;;4.51;100.00
43683;BME280;29285;52.128;21.060;2023-04-06T15:06:02;100444.66;;;4.52;100.00
43683;BME280;29285;52.128;21.060;2023-04-06T15:11:04;100451.75;;;4.54;100.00
43683;BME280;29285;52.128;21.060;2023-04-06T15:16:07;100450.33;;;4.50;100.00
43683;BME280;29285;52.128;21.060;2023-04-06T15:21:08;100450.20;;;4.55;100.00
43683;BME280;29285;52.128;21.060;2023-04-06T15:26:10;100444.41;;;4.58;100.00
43683;BME280;29285;52.128;21.060;2023-04-06T15:31:16;100445.65;;;4.63;100.00
43683;BME280;29285;52.128;21.060;2023-04-06T15:36:22;100440.21;;;4.70;100.00
43683;BME280;29285;52.128;21.060;2023-04-06T15:41:29;100437.44;;;4.67;100.00
43683;BME280;29285;52.128;21.060;2023-04-06T15:46:31;100437.24;;;4.64;100.00
43683;BME280;29285;52.128;21.060;2023-04-06T15:51:34;100440.66;;;4.65;100.00
43683;BME280;29285;52.128;21.060;2023-04-06T15:56:35;100443.21;;;4.60;100.00
43683;BME280;29285;52.128;21.060;2023-04-06T16:01:37;100438.93;;;4.61;100.00
43683;BME280;29285;52.128;21.060;2023-04-06T16:06:41;100437.77;;;4.67;100.00
43683;BME280;29285;52.128;21.060;2023-04-06T16:11:43;100433.56;;;4.57;100.00
43683;BME280;29285;52.128;21.060;2023-04-06T16:16:44;100436.38;;;4.48;100.00
43683;BME280;29285;52.128;21.060;2023-04-06T16:21:47;100433.20;;;4.40;100.00
43683;BME280;29285;52.128;21.060;2023-04-06T16:26:52;100427.65;;;4.34;100.00
43683;BME280;29285;52.128;21.060;2023-04-06T16:31:54;100421.90;;;4.26;100.00
43683;BME280;29285;52.128;21.060;2023-04-06T16:36:56;100420.10;;;4.19;100.00
43683;BME280;29285;52.128;21.060;2023-04-06T16:41:57;100429.32;;;4.15;100.00
43683;BME280;29285;52.128;21.060;2023-04-06T16:46:59;100428.77;;;4.12;100.00
43683;BME280;29285;52.128;21.060;2023-04-06T16:52:01;100429.44;;;4.10;100.00
43683;BME280;29285;52.128;21.060;2023-04-06T16:57:05;100426.87;;;4.10;100.00
43683;BME280;29285;52.128;21.060;2023-04-06T17:02:06;100433.75;;;4.12;100.00
43683;BME280;29285;52.128;21.060;2023-04-06T17:07:08;100436.57;;;4.17;100.00
43683;BME280;29285;52.128;21.060;2023-04-06T17:12:11;100437.61;;;4.19;100.00
43683;BME280;29285;52.128;21.060;2023-04-06T17:17:14;100432.27;;;4.18;100.00
43683;BME280;29285;52.128;21.060;2023-04-06T17:22:16;100432.54;;;4.10;100.00
43683;BME280;29285;52.128;21.060;2023-04-06T17:27:21;100435.79;;;4.10;100.00
43683;BME280;29285;52.128;21.060;2023-04-06T17:32:23;100435.98;;;4.12;100.00
43683;BME280;29285;52.128;21.060;2023-04-06T17:37:28;100441.14;;;4.14;100.00
43683;BME280;29285;52.128;21.060;2023-04-06T17:42:30;100439.94;;;4.12;100.00
43683;BME280;29285;52.128;21.060;2023-04-06T17:47:32;100431.20;;;4.14;100.00
43683;BME280;29285;52.128;21.060;2023-04-06T17:52:33;100432.66;;;4.07;100.00
43683;BME280;29285;52.128;21.060;2023-04-06T17:57:36;100432.13;;;4.06;100.00
43683;BME280;29285;52.128;21.060;2023-04-06T18:02:38;100433.00;;;4.06;100.00
43683;BME280;29285;52.128;21.060;2023-04-06T18:07:42;100429.92;;;4.08;100.00
43683;BME280;29285;52.128;21.060;2023-04-06T18:12:44;100428.53;;;4.07;100.00
43683;BME280;29285;52.128;21.060;2023-04-06T18:17:48;100430.95;;;4.07;100.00
43683;BME280;29285;52.128;21.060;2023-04-06T18:22:50;100430.88;;;4.01;100.00
43683;BME280;29285;52.128;21.060;2023-04-06T18:27:52;100429.34;;;4.01;100.00
43683;BME280;29285;52.128;21.060;2023-04-06T18:32:55;100421.61;;;4.03;100.00
43683;BME280;29285;52.128;21.060;2023-04-06T18:37:56;100414.60;;;4.04;100.00
43683;BME280;29285;52.128;21.060;2023-04-06T18:42:58;100415.64;;;4.04;100.00
43683;BME280;29285;52.128;21.060;2023-04-06T18:48:00;100419.70;;;4.01;100.00
43683;BME280;29285;52.128;21.060;2023-04-06T18:53:02;100410.79;;;4.03;100.00
43683;BME280;29285;52.128;21.060;2023-04-06T18:58:04;100402.23;;;4.04;100.00
43683;BME280;29285;52.128;21.060;2023-04-06T19:03:06;100403.60;;;4.04;100.00
43683;BME280;29285;52.128;21.060;2023-04-06T19:08:08;100405.35;;;4.06;100.00
43683;BME280;29285;52.128;21.060;2023-04-06T19:13:10;100408.42;;;4.04;100.00
43683;BME280;29285;52.128;21.060;2023-04-06T19:18:17;100410.95;;;4.02;100.00
43683;BME280;29285;52.128;21.060;2023-04-06T19:23:23;100412.89;;;4.06;100.00
43683;BME280;29285;52.128;21.060;2023-04-06T19:28:25;100406.36;;;4.05;100.00
43683;BME280;29285;52.128;21.060;2023-04-06T19:33:26;100397.22;;;4.01;100.00
43683;BME280;29285;52.128;21.060;2023-04-06T19:38:28;100398.44;;;4.03;100.00
43683;BME280;29285;52.128;21.060;2023-04-06T19:43:29;100393.16;;;4.06;100.00
43683;BME280;29285;52.128;21.060;2023-04-06T19:48:31;100385.10;;;4.07;100.00
43683;BME280;29285;52.128;21.060;2023-04-06T19:53:36;100378.95;;;4.10;100.00
43683;BME280;29285;52.128;21.060;2023-04-06T19:58:37;100382.84;;;4.20;100.00
43683;BME280;29285;52.128;21.060;2023-04-06T20:03:39;100388.23;;;4.43;100.00
43683;BME280;29285;52.128;21.060;2023-04-06T20:08:41;100383.98;;;4.66;100.00
43683;BME280;29285;52.128;21.060;2023-04-06T20:13:43;100379.92;;;4.74;100.00
43683;BME280;29285;52.128;21.060;2023-04-06T20:18:45;100378.45;;;4.84;100.00
43683;BME280;29285;52.128;21.060;2023-04-06T20:23:46;100372.16;;;4.92;100.00
43683;BME280;29285;52.128;21.060;2023-04-06T20:28:48;100365.33;;;4.98;100.00
43683;BME280;29285;52.128;21.060;2023-04-06T20:33:50;100369.40;;;5.16;100.00
43683;BME280;29285;52.128;21.060;2023-04-06T20:38:52;100363.32;;;5.32;100.00
43683;BME280;29285;52.128;21.060;2023-04-06T20:43:53;100361.39;;;5.25;100.00
43683;BME280;29285;52.128;21.060;2023-04-06T20:48:55;100369.14;;;5.02;100.00
43683;BME280;29285;52.128;21.060;2023-04-06T20:53:57;100362.70;;;4.92;100.00
43683;BME280;29285;52.128;21.060;2023-04-06T20:59:01;100370.95;;;4.90;100.00
43683;BME280;29285;52.128;21.060;2023-04-06T21:04:05;100378.33;;;4.90;100.00
43683;BME280;29285;52.128;21.060;2023-04-06T21:09:06;100374.04;;;4.89;100.00
43683;BME280;29285;52.128;21.060;2023-04-06T21:14:08;100372.10;;;4.85;100.00
43683;BME280;29285;52.128;21.060;2023-04-06T21:19:10;100365.38;;;4.81;100.00
43683;BME280;29285;52.128;21.060;2023-04-06T21:24:11;100358.66;;;4.82;100.00
43683;BME280;29285;52.128;21.060;2023-04-06T21:29:13;100361.41;;;4.81;100.00
43683;BME280;29285;52.128;21.060;2023-04-06T21:34:15;100353.46;;;4.75;100.00
43683;BME280;29285;52.128;21.060;2023-04-06T21:39:16;100339.48;;;4.69;100.00
43683;BME280;29285;52.128;21.060;2023-04-06T21:44:18;100339.24;;;4.61;100.00
43683;BME280;29285;52.128;21.060;2023-04-06T21:49:20;100332.70;;;4.59;100.00
43683;BME280;29285;52.128;21.060;2023-04-06T21:54:21;100325.84;;;4.60;100.00
43683;BME280;29285;52.128;21.060;2023-04-06T21:59:24;100317.40;;;4.59;100.00
43683;BME280;29285;52.128;21.060;2023-04-06T22:04:26;100316.58;;;4.61;100.00
43683;BME280;29285;52.128;21.060;2023-04-06T22:09:28;100318.44;;;4.57;100.00
43683;BME280;29285;52.128;21.060;2023-04-06T22:14:30;100316.17;;;4.54;100.00
43683;BME280;29285;52.128;21.060;2023-04-06T22:19:32;100308.95;;;4.53;100.00
43683;BME280;29285;52.128;21.060;2023-04-06T22:24:33;100310.20;;;4.59;100.00
43683;BME280;29285;52.128;21.060;2023-04-06T22:29:35;100305.77;;;4.65;100.00
43683;BME280;29285;52.128;21.060;2023-04-06T22:34:37;100301.30;;;4.64;100.00
43683;BME280;29285;52.128;21.060;2023-04-06T22:39:38;100293.42;;;4.68;100.00
43683;BME280;29285;52.128;21.060;2023-04-06T22:44:40;100294.51;;;4.75;100.00
43683;BME280;29285;52.128;21.060;2023-04-06T22:49:42;100282.13;;;4.75;100.00
43683;BME280;29285;52.128;21.060;2023-04-06T22:54:44;100278.17;;;4.75;100.00
43683;BME280;29285;52.128;21.060;2023-04-06T22:59:45;100271.99;;;4.76;100.00
43683;BME280;29285;52.128;21.060;2023-04-06T23:04:47;100275.77;;;4.74;100.00
43683;BME280;29285;52.128;21.060;2023-04-06T23:09:49;100272.18;;;4.78;100.00
43683;BME280;29285;52.128;21.060;2023-04-06T23:14:52;100268.10;;;4.83;100.00
43683;BME280;29285;52.128;21.060;2023-04-06T23:19:53;100266.41;;;4.90;100.00
43683;BME280;29285;52.128;21.060;2023-04-06T23:24:55;100259.58;;;4.98;100.00
43683;BME280;29285;52.128;21.060;2023-04-06T23:29:57;100258.07;;;5.04;100.00
43683;BME280;29285;52.128;21.060;2023-04-06T23:35:00;100246.56;;;5.08;100.00
43683;BME280;29285;52.128;21.060;2023-04-06T23:40:01;100242.60;;;5.05;100.00
43683;BME280;29285;52.128;21.060;2023-04-06T23:45:06;100237.09;;;5.02;100.00
43683;BME280;29285;52.128;21.060;2023-04-06T23:50:08;100236.57;;;5.05;100.00
43683;BME280;29285;52.128;21.060;2023-04-06T23:55:10;100232.64;;;5.09;100.00
